Date,TemperatureHighF,TemperatureAvgF,TemperatureLowF,DewpointHighF,DewpointAvgF,DewpointLowF,HumidityHigh,HumidityAvg,HumidityLow,PressureMaxIn,PressureMinIn,WindSpeedMaxMPH,WindSpeedAvgMPH,GustSpeedMaxMPH,PrecipitationSumIn
2013-8-1,62,60,59,33,32,31,37,35,31,30.12,30.09,0,0,0,0.00
2013-8-3,76,72,68,30,25,20,24,17,13,30.03,29.97,4,3,6,0.00
2013-8-4,90,75,62,40,32,20,44,23,11,30.06,29.91,4,2,8,0.00
2013-8-5,91,74,60,36,30,22,39,21,11,30.03,29.91,3,1,8,0.00
2013-8-6,93,77,63,33,25,16,20,15,11,30.03,29.91,4,2,8,0.00
2013-8-7,74,64,58,31,25,16,35,23,14,30.06,29.97,5,0,8,0.00
2013-8-8,84,67,53,43,32,23,66,32,12,30.09,29.91,4,1,10,0.00
2013-8-9,84,71,63,47,33,22,54,27,12,29.97,29.85,3,0,6,0.00
2013-8-10,78,68,59,40,32,22,49,28,13,30.09,29.94,2,0,4,0.00
2013-8-11,75,64,58,39,32,23,47,32,16,30.09,30.00,1,0,5,0.00
2013-8-12,75,64,59,43,32,20,52,32,16,30.12,30.03,0,0,5,0.00
2013-8-13,85,70,54,34,27,18,43,22,12,30.12,29.94,2,0,8,0.00
2013-8-14,86,70,58,37,28,19,38,22,11,30.00,29.94,0,0,4,0.00
2013-8-15,78,71,65,42,37,32,39,30,20,30.00,29.97,3,0,6,0.00
2013-8-16,83,72,65,49,36,17,54,31,14,30.06,30.00,2,0,8,0.00
2013-8-17,88,71,60,34,28,20,34,21,11,30.12,30.03,2,0,6,0.00
2013-8-18,86,71,59,45,32,23,57,28,11,30.15,30.06,4,1,8,0.00
2013-8-19,87,73,62,36,30,20,38,23,11,30.15,30.03,5,3,10,0.00
2013-8-20,84,70,57,29,24,18,27,18,11,30.15,29.97,6,4,13,0.00
2013-8-21,84,73,60,30,24,16,25,16,11,30.00,29.88,5,3,10,0.00
2013-8-22,83,72,63,42,28,18,46,22,11,29.94,29.85,3,0,8,0.00
2013-8-23,75,64,57,46,34,22,59,36,16,29.97,29.91,1,0,6,0.00
2013-8-24,75,67,60,39,30,20,44,27,16,29.94,29.88,2,0,5,0.00
2013-8-25,68,62,57,44,35,26,48,36,25,29.97,29.91,4,1,6,0.12
2013-8-26,81,66,56,48,32,19,71,33,12,30.00,29.91,2,0,4,0.00
2013-8-27,83,70,62,34,28,22,35,23,11,29.97,29.82,2,0,6,0.00
2013-8-28,81,70,62,55,37,22,67,35,12,29.94,29.85,3,0,7,0.00
2013-8-29,73,67,63,58,48,37,71,50,33,30.09,29.88,1,0,6,0.12
2013-8-30,84,72,64,54,36,23,65,31,14,30.18,30.06,4,1,8,0.00
2013-8-31,86,73,62,34,28,23,35,20,11,30.06,29.85,5,2,8,0.00